Time;durP1;ratioP1;P1;durP2;ratioP2;P2;SDS_P1;SDS_P2;PMS_P1;PMS_P2;Temp;Humidity;BMP_temperature;BMP_pressure;BME280_temperature;BME280_humidity;BME280_pressure;Samples;Min_cycle;Max_cycle;Signal;HPM_P1;HPM_P2
2022/05/12 00:00:59;;;;;;;7.93;3.88;;;;;;;14.60;86.90;100250.31;5998602;28;20027;-65
2022/05/12 00:03:55;;;;;;;12.43;4.20;;;;;;;14.54;86.67;100253.75;6004883;28;20101;-65
2022/05/12 00:06:50;;;;;;;13.33;4.60;;;;;;;14.54;86.86;100246.56;6000917;28;20207;-65
2022/05/12 00:09:46;;;;;;;12.68;4.07;;;;;;;14.55;86.06;100247.38;6009759;28;20034;-66
2022/05/12 00:12:42;;;;;;;14.15;4.32;;;;;;;14.73;86.64;100232.66;6007061;28;20054;-66
2022/05/12 00:15:38;;;;;;;8.63;3.65;;;;;;;14.81;84.74;100255.78;6003999;28;20046;-67
2022/05/12 00:18:33;;;;;;;9.57;3.73;;;;;;;14.78;84.45;100256.16;6004739;28;20065;-65
2022/05/12 00:21:28;;;;;;;8.57;4.00;;;;;;;14.51;85.05;100246.91;5994152;28;20398;-66
2022/05/12 00:24:24;;;;;;;10.20;3.70;;;;;;;14.42;86.09;100253.38;6002266;28;20113;-66
2022/05/12 00:27:19;;;;;;;10.73;4.60;;;;;;;14.37;86.22;100282.44;5993403;28;20034;-66
2022/05/12 00:30:15;;;;;;;12.13;3.87;;;;;;;14.41;86.70;100274.88;6001675;28;20038;-66
2022/05/12 00:33:10;;;;;;;12.40;4.60;;;;;;;14.35;86.55;100279.09;6003735;28;20118;-67
2022/05/12 00:36:06;;;;;;;8.18;4.00;;;;;;;14.46;87.23;100281.31;5997161;28;20035;-67
2022/05/12 00:39:03;;;;;;;13.82;3.65;;;;;;;14.50;87.04;100298.63;6002795;28;20389;-66
2022/05/12 00:41:58;;;;;;;12.30;3.63;;;;;;;14.32;86.87;100290.94;5998989;28;20106;-66
2022/05/12 00:44:53;;;;;;;9.07;4.13;;;;;;;14.31;87.47;100288.44;5996478;28;20043;-67
2022/05/12 00:47:49;;;;;;;12.73;3.90;;;;;;;14.44;87.75;100287.84;6002112;28;20121;-68
2022/05/12 00:50:44;;;;;;;9.87;3.50;;;;;;;14.09;87.42;100273.28;6003386;28;20042;-66
2022/05/12 00:53:40;;;;;;;9.55;4.30;;;;;;;14.21;87.98;100294.00;5996790;28;20475;-67
2022/05/12 00:56:35;;;;;;;15.65;4.18;;;;;;;14.14;88.27;100314.41;6001841;28;20066;-67
2022/05/12 00:59:32;;;;;;;12.02;4.07;;;;;;;14.27;88.51;100301.31;5997959;28;20045;-66
2022/05/12 01:02:28;;;;;;;9.13;2.80;;;;;;;14.07;85.72;100313.50;5996292;28;20031;-66
2022/05/12 01:05:24;;;;;;;9.15;3.25;;;;;;;13.81;85.95;100290.84;6004846;28;20094;-67
2022/05/12 01:08:20;;;;;;;9.30;3.33;;;;;;;13.95;85.61;100277.56;6000731;28;20046;-66
2022/05/12 01:11:17;;;;;;;8.70;3.08;;;;;;;13.91;86.07;100265.63;6000578;28;20035;-66
2022/05/12 01:14:13;;;;;;;10.73;3.60;;;;;;;13.92;88.06;100269.94;5997596;28;20058;-65
2022/05/12 01:17:09;;;;;;;10.02;3.63;;;;;;;13.69;87.98;100269.13;5997267;28;20045;-67
2022/05/12 01:20:06;;;;;;;9.33;3.47;;;;;;;13.61;87.80;100286.00;6001779;28;20027;-68
2022/05/12 01:23:21;;;;;;;8.15;3.22;;;;;;;13.57;87.97;100289.16;5992520;28;20399;-67
2022/05/12 01:26:16;;;;;;;11.48;3.70;;;;;;;13.53;88.17;100293.19;6001652;28;20041;-67
2022/05/12 01:29:11;;;;;;;13.17;4.23;;;;;;;13.65;88.74;100294.44;6000136;28;20046;-66
2022/05/12 01:32:07;;;;;;;15.93;3.80;;;;;;;13.70;88.71;100290.25;6004864;28;20033;-65
2022/05/12 01:35:04;;;;;;;9.20;3.58;;;;;;;13.71;88.89;100299.06;5997233;28;20031;-68
2022/05/12 01:38:00;;;;;;;8.63;3.47;;;;;;;13.77;88.86;100309.03;5998615;28;20031;-66
2022/05/12 01:40:55;;;;;;;10.23;4.03;;;;;;;13.67;88.52;100311.06;5991001;28;20038;-66
2022/05/12 01:43:51;;;;;;;11.55;3.58;;;;;;;13.72;88.39;100320.19;6000070;28;20022;-66
2022/05/12 01:46:48;;;;;;;7.75;3.65;;;;;;;13.87;88.54;100317.63;6012766;28;20375;-65
2022/05/12 01:49:43;;;;;;;7.10;2.90;;;;;;;13.95;88.37;100322.06;5996673;28;20038;-67
2022/05/12 01:52:43;;;;;;;11.17;3.70;;;;;;;13.94;87.91;100313.22;5998502;28;20463;-66
2022/05/12 01:55:39;;;;;;;7.53;3.30;;;;;;;13.99;87.25;100332.22;6003037;28;20534;-66
2022/05/12 01:58:34;;;;;;;7.10;3.17;;;;;;;13.88;88.03;100323.78;6000888;28;20030;-66
2022/05/12 02:01:30;;;;;;;7.63;3.55;;;;;;;13.91;88.18;100334.94;6001104;28;20426;-67
2022/05/12 02:04:25;;;;;;;8.90;3.07;;;;;;;13.87;87.75;100341.59;5983937;28;20470;-66
2022/05/12 02:07:20;;;;;;;6.60;3.40;;;;;;;13.98;87.37;100348.38;5997047;28;20758;-66
2022/05/12 02:10:19;;;;;;;7.00;2.90;;;;;;;13.84;87.25;100341.97;6002066;28;20084;-67
2022/05/12 02:13:17;;;;;;;9.75;3.00;;;;;;;13.83;87.10;100348.31;6011208;28;20042;-65
2022/05/12 02:16:12;;;;;;;8.52;2.70;;;;;;;13.78;86.93;100361.31;6002617;28;20510;-65
2022/05/12 02:19:09;;;;;;;7.30;2.70;;;;;;;13.81;86.12;100373.44;5998313;28;20046;-65
2022/05/12 02:22:06;;;;;;;6.03;2.80;;;;;;;13.70;86.28;100366.69;5997005;28;20035;-66
2022/05/12 02:25:01;;;;;;;6.22;2.67;;;;;;;13.66;86.18;100357.41;5992198;28;20045;-66
2022/05/12 02:27:57;;;;;;;7.83;2.57;;;;;;;13.68;86.18;100387.34;6000213;28;20494;-66
2022/05/12 02:30:52;;;;;;;5.18;2.70;;;;;;;13.66;85.37;100389.38;6001664;28;20042;-67
2022/05/12 02:33:48;;;;;;;5.55;2.22;;;;;;;13.71;84.78;100403.84;5989136;28;20042;-66
2022/05/12 02:36:59;;;;;;;4.60;2.30;;;;;;;13.62;84.87;100414.69;6001606;28;20307;-65
2022/05/12 02:39:55;;;;;;;6.80;1.80;;;;;;;13.42;82.30;100418.78;5991835;28;20043;-66
2022/05/12 02:42:50;;;;;;;5.00;1.60;;;;;;;13.39;77.77;100421.78;5994829;28;20035;-67
2022/05/12 02:45:46;;;;;;;4.65;1.30;;;;;;;13.42;75.89;100434.75;6002961;28;20069;-65
2022/05/12 02:48:44;;;;;;;4.78;1.27;;;;;;;13.31;74.81;100445.78;6001899;28;20045;-65
2022/05/12 02:51:40;;;;;;;2.75;1.15;;;;;;;13.17;75.37;100449.97;6003477;28;20109;-67
2022/05/12 02:54:36;;;;;;;3.50;1.23;;;;;;;13.04;75.93;100479.72;6003023;28;20097;-65
2022/05/12 02:57:32;;;;;;;3.33;1.10;;;;;;;13.03;75.27;100479.88;6006410;28;20039;-65
2022/05/12 03:00:27;;;;;;;3.55;1.10;;;;;;;12.92;75.35;100483.72;6007010;28;20081;-66
2022/05/12 03:03:23;;;;;;;3.20;1.07;;;;;;;12.79;76.10;100504.69;6006188;28;20038;-66
2022/05/12 03:06:18;;;;;;;6.68;1.13;;;;;;;12.66;76.29;100507.00;5976572;28;20710;-64
2022/05/12 03:09:13;;;;;;;1.73;0.97;;;;;;;12.58;74.61;100520.28;5979363;28;20043;-66
2022/05/12 03:12:09;;;;;;;2.57;1.00;;;;;;;12.51;73.68;100540.53;5980780;28;20767;-65
2022/05/12 03:15:06;;;;;;;3.17;1.47;;;;;;;12.43;73.97;100552.00;5981227;28;20468;-66
2022/05/12 03:18:01;;;;;;;3.15;1.05;;;;;;;12.28;73.76;100547.47;5982687;28;20267;-65
2022/05/12 03:20:57;;;;;;;5.88;1.00;;;;;;;12.17;74.28;100555.72;5992641;28;20042;-65
2022/05/12 03:23:53;;;;;;;1.70;0.87;;;;;;;12.10;74.38;100570.63;5980417;28;20070;-66
2022/05/12 03:26:48;;;;;;;7.85;1.10;;;;;;;11.95;75.10;100557.13;5973558;28;20801;-66
2022/05/12 03:29:44;;;;;;;2.75;0.90;;;;;;;11.90;75.65;100557.59;5974930;28;20047;-65
2022/05/12 03:32:40;;;;;;;2.70;0.90;;;;;;;11.85;75.90;100573.19;5979314;28;20056;-65
2022/05/12 03:35:36;;;;;;;4.57;1.20;;;;;;;11.81;75.49;100571.84;5983562;28;20491;-65
2022/05/12 03:38:31;;;;;;;4.53;1.00;;;;;;;11.86;75.46;100592.63;5968787;28;20039;-66
2022/05/12 03:41:27;;;;;;;5.20;1.15;;;;;;;11.88;74.49;100609.22;5980676;28;20031;-65
2022/05/12 03:47:38;;;;;;;2.63;0.98;;;;;;;11.74;75.78;100626.56;5973523;28;20043;-66
2022/05/12 03:50:33;;;;;;;3.38;1.00;;;;;;;11.76;75.08;100624.63;5980735;29;20042;-65
2022/05/12 03:53:30;;;;;;;2.17;0.97;;;;;;;11.82;75.54;100628.47;5976883;28;20407;-66
2022/05/12 03:56:26;;;;;;;3.15;0.82;;;;;;;11.78;75.60;100638.56;5981937;28;20038;-66
2022/05/12 03:59:21;;;;;;;2.13;1.00;;;;;;;11.85;75.05;100646.72;5977103;28;20047;-66
2022/05/12 04:02:18;;;;;;;4.28;0.98;;;;;;;11.85;74.49;100650.22;5979391;28;20487;-64
2022/05/12 04:05:14;;;;;;;1.25;0.65;;;;;;;11.69;75.12;100655.44;5981448;28;20034;-65
2022/05/12 04:08:09;;;;;;;3.25;0.80;;;;;;;11.63;75.52;100663.97;5978132;28;20027;-67
2022/05/12 04:11:07;;;;;;;3.92;1.00;;;;;;;11.70;75.43;100678.34;5981191;28;20031;-66
2022/05/12 04:14:04;;;;;;;3.75;1.60;;;;;;;11.78;75.11;100680.25;5979580;28;20046;-66
2022/05/12 04:16:59;;;;;;;2.88;0.85;;;;;;;11.79;75.21;100690.72;5977482;28;20062;-65
2022/05/12 04:19:55;;;;;;;4.00;0.90;;;;;;;11.84;74.86;100709.69;5980306;28;20467;-66
2022/05/12 04:22:50;;;;;;;1.83;0.90;;;;;;;11.97;74.50;100698.66;5969969;28;20078;-65
2022/05/12 04:25:45;;;;;;;11.97;0.90;;;;;;;12.06;73.82;100715.50;5981341;28;20047;-66
2022/05/12 04:28:41;;;;;;;1.47;0.53;;;;;;;12.00;73.34;100722.25;5981194;28;20446;-65
2022/05/12 04:31:36;;;;;;;2.17;0.63;;;;;;;11.93;73.73;100726.50;5979921;28;20035;-66
2022/05/12 04:37:52;;;;;;;3.05;0.70;;;;;;;12.06;75.24;100755.38;5984276;28;20043;-65
2022/05/12 04:40:51;;;;;;;2.03;0.75;;;;;;;12.24;73.87;100745.50;5978869;28;20046;-67
2022/05/12 04:43:46;;;;;;;2.65;0.90;;;;;;;12.17;73.92;100750.63;5979222;28;20031;-65
2022/05/12 04:46:42;;;;;;;3.23;0.90;;;;;;;12.21;73.44;100761.78;5980529;28;20031;-65
2022/05/12 04:49:37;;;;;;;2.15;0.95;;;;;;;12.20;74.24;100760.13;5976249;28;20043;-66
2022/05/12 04:52:33;;;;;;;1.93;0.93;;;;;;;12.33;73.32;100771.19;5977297;28;20031;-66
2022/05/12 04:55:28;;;;;;;3.70;1.10;;;;;;;12.33;73.36;100780.00;5981495;28;20042;-66
2022/05/12 04:58:25;;;;;;;3.17;1.13;;;;;;;12.48;73.06;100788.22;5979632;28;20283;-65
2022/05/12 05:01:21;;;;;;;3.75;1.10;;;;;;;12.22;73.50;100790.03;5978388;28;20031;-67
2022/05/12 05:04:16;;;;;;;5.60;1.07;;;;;;;12.45;73.85;100799.16;5971223;28;20031;-67
2022/05/12 05:07:12;;;;;;;4.70;1.30;;;;;;;12.54;73.15;100801.75;5970793;28;20282;-65
2022/05/12 05:10:09;;;;;;;3.63;1.10;;;;;;;12.68;72.84;100813.63;5972370;28;20495;-65
2022/05/12 05:13:05;;;;;;;5.93;1.20;;;;;;;12.66;72.13;100810.31;5976598;28;20487;-65
2022/05/12 05:16:02;;;;;;;10.60;3.00;;;;;;;12.96;71.22;100825.75;5967391;28;20027;-66
2022/05/12 05:18:57;;;;;;;2.47;1.05;;;;;;;12.92;71.49;100827.09;5969465;28;20035;-64
2022/05/12 05:21:52;;;;;;;6.70;1.20;;;;;;;12.86;71.22;100833.03;5979383;28;20039;-65
2022/05/12 05:24:48;;;;;;;4.03;1.10;;;;;;;12.97;71.44;100843.41;5977585;28;20569;-67
2022/05/12 05:27:45;;;;;;;3.10;1.07;;;;;;;12.97;71.08;100838.09;5980054;28;20147;-64
2022/05/12 05:30:41;;;;;;;2.42;1.00;;;;;;;12.94;71.10;100841.06;5967115;28;20274;-66
2022/05/12 05:33:36;;;;;;;4.10;1.70;;;;;;;12.98;70.41;100845.09;5976337;28;20039;-65
2022/05/12 05:36:32;;;;;;;2.70;1.00;;;;;;;13.07;70.75;100846.81;5978951;28;20031;-65
2022/05/12 05:39:28;;;;;;;4.07;1.10;;;;;;;13.32;70.25;100837.09;5977727;28;20058;-65
2022/05/12 05:42:23;;;;;;;3.10;1.27;;;;;;;13.55;68.22;100845.34;5968411;28;20054;-65
2022/05/12 05:45:19;;;;;;;4.47;1.25;;;;;;;13.48;69.30;100852.34;5976413;28;20035;-66
2022/05/12 05:48:14;;;;;;;1.92;0.80;;;;;;;13.41;69.37;100867.28;5978627;28;20062;-66
2022/05/12 05:54:23;;;;;;;3.28;1.02;;;;;;;13.71;68.19;100875.56;5979456;28;20023;-65
2022/05/12 05:57:23;;;;;;;1.73;0.90;;;;;;;13.83;66.73;100885.91;5971790;28;20039;-65
2022/05/12 06:00:19;;;;;;;2.40;0.52;;;;;;;14.24;66.94;100891.16;5978590;28;20035;-66
2022/05/12 06:03:15;;;;;;;2.88;0.98;;;;;;;14.24;65.54;100909.81;5977194;28;20036;-65
2022/05/12 06:06:11;;;;;;;3.17;1.08;;;;;;;14.51;64.59;100914.03;5978322;28;20073;-65
2022/05/12 06:09:07;;;;;;;2.25;0.75;;;;;;;14.27;65.88;100917.50;5976596;28;20039;-66
2022/05/12 06:12:02;;;;;;;3.30;1.20;;;;;;;14.61;62.95;100917.41;5976921;28;20029;-66
2022/05/12 06:14:59;;;;;;;3.08;0.90;;;;;;;14.36;65.05;100930.88;5977511;28;20027;-65
2022/05/12 06:17:54;;;;;;;2.85;1.00;;;;;;;14.29;64.63;100934.16;5966062;28;20048;-65
2022/05/12 06:20:50;;;;;;;3.25;0.75;;;;;;;14.49;64.63;100931.22;5973746;29;20167;-66
2022/05/12 06:23:46;;;;;;;3.70;0.93;;;;;;;14.08;64.79;100928.47;5969338;28;20039;-66
2022/05/12 06:26:41;;;;;;;3.15;0.90;;;;;;;14.14;64.08;100927.81;5977244;28;20435;-66
2022/05/12 06:29:37;;;;;;;3.37;1.10;;;;;;;14.38;64.37;100944.91;5980294;28;20039;-66
2022/05/12 06:32:32;;;;;;;3.23;0.87;;;;;;;14.53;63.23;100945.91;5976918;28;20043;-65
2022/05/12 06:35:27;;;;;;;1.27;0.60;;;;;;;14.66;63.45;100941.75;5978493;28;20039;-65
2022/05/12 06:38:23;;;;;;;2.87;1.40;;;;;;;14.60;63.49;100949.56;5979227;28;20499;-66
2022/05/12 06:41:18;;;;;;;4.43;1.10;;;;;;;14.22;64.50;100951.84;5971342;28;20423;-65
2022/05/12 06:44:14;;;;;;;5.67;1.27;;;;;;;14.18;65.26;100961.19;5982797;28;20058;-65
2022/05/12 06:47:10;;;;;;;4.93;1.20;;;;;;;14.30;64.71;100962.53;5972948;28;20031;-65
2022/05/12 06:50:07;;;;;;;4.03;1.17;;;;;;;14.58;63.78;100973.78;5981794;28;20031;-66
2022/05/12 06:53:02;;;;;;;5.13;1.02;;;;;;;14.60;65.00;100994.94;5978842;28;20595;-65
2022/05/12 06:55:57;;;;;;;3.80;1.20;;;;;;;14.57;64.25;100997.94;5962345;29;20044;-65
2022/05/12 06:58:53;;;;;;;7.50;1.30;;;;;;;14.94;63.38;101003.66;5973067;28;20043;-65
2022/05/12 07:01:48;;;;;;;4.40;1.30;;;;;;;15.09;62.24;100996.63;5981771;28;20294;-65
2022/05/12 07:04:45;;;;;;;5.73;1.17;;;;;;;15.06;62.76;101006.81;5983136;28;20065;-66
2022/05/12 07:07:42;;;;;;;6.93;1.30;;;;;;;15.19;62.06;101009.84;5984761;28;20279;-65
2022/05/12 07:10:37;;;;;;;3.65;1.20;;;;;;;15.19;62.59;101015.19;5983076;28;20118;-66
2022/05/12 07:13:33;;;;;;;6.80;1.35;;;;;;;15.28;62.41;101012.31;5993956;28;20035;-65
2022/05/12 07:16:28;;;;;;;3.75;1.20;;;;;;;15.18;61.47;101029.53;5983552;28;20074;-65
2022/05/12 07:19:24;;;;;;;3.73;1.30;;;;;;;15.19;62.48;101032.03;5984375;28;20078;-66
2022/05/12 07:28:48;;;;;;;8.07;1.38;;;;;;;15.54;61.71;101040.72;5992347;28;20039;-65
2022/05/12 07:31:43;;;;;;;3.60;1.43;;;;;;;16.03;59.53;101042.25;5982878;28;20365;-66
2022/05/12 07:34:40;;;;;;;3.10;1.10;;;;;;;15.61;60.65;101039.00;5995928;28;20471;-66
2022/05/12 07:37:37;;;;;;;3.33;1.38;;;;;;;15.20;61.40;101055.06;5983290;28;20073;-65
2022/05/12 07:40:32;;;;;;;5.90;1.50;;;;;;;14.98;62.08;101054.88;5981257;28;20051;-65
2022/05/12 07:43:28;;;;;;;3.97;1.08;;;;;;;15.08;62.81;101059.09;5982999;28;20031;-65
2022/05/12 07:46:27;;;;;;;4.93;1.33;;;;;;;15.12;62.09;101073.78;5980086;28;20414;-65
2022/05/12 07:49:22;;;;;;;2.28;1.02;;;;;;;15.25;62.27;101067.91;5988357;28;20386;-65
2022/05/12 07:52:18;;;;;;;4.00;1.43;;;;;;;15.24;61.89;101090.31;5977750;28;20042;-66
2022/05/12 07:55:13;;;;;;;2.73;1.20;;;;;;;15.21;61.71;101087.97;5984702;28;20801;-66
2022/05/12 07:58:10;;;;;;;3.90;1.20;;;;;;;15.19;62.14;101084.66;5984821;28;20043;-66
2022/05/12 08:01:06;;;;;;;5.05;1.20;;;;;;;15.47;62.08;101089.50;5984635;28;20617;-65
2022/05/12 08:04:01;;;;;;;3.97;1.40;;;;;;;15.25;62.27;101099.97;5981685;28;20121;-66
2022/05/12 08:06:59;;;;;;;3.78;1.30;;;;;;;15.47;61.85;101100.19;5978720;28;20411;-67
2022/05/12 08:09:57;;;;;;;4.70;1.40;;;;;;;15.43;61.37;101104.19;5989529;28;20532;-66
2022/05/12 08:12:53;;;;;;;3.47;1.50;;;;;;;15.73;61.76;101104.50;5977398;28;20542;-66
2022/05/12 08:15:50;;;;;;;7.50;1.40;;;;;;;16.08;58.92;101101.41;5983128;28;20035;-65
2022/05/12 08:18:49;;;;;;;6.00;1.67;;;;;;;16.35;57.75;101100.16;5982615;28;20046;-65
2022/05/12 08:21:44;;;;;;;2.53;1.15;;;;;;;16.89;56.96;101114.44;5985788;28;20042;-66
2022/05/12 08:24:40;;;;;;;4.20;1.30;;;;;;;16.98;56.65;101102.69;5982265;28;20117;-67
2022/05/12 08:27:35;;;;;;;6.00;1.33;;;;;;;16.24;56.31;101119.25;5986400;28;20422;-66
2022/05/12 08:30:31;;;;;;;3.75;1.40;;;;;;;16.27;58.16;101114.41;5985422;28;20035;-65
2022/05/12 08:33:27;;;;;;;6.35;1.70;;;;;;;16.33;56.47;101124.44;5983512;28;20035;-65
2022/05/12 08:36:22;;;;;;;5.78;1.27;;;;;;;16.77;57.71;101123.91;5983140;28;20047;-66
2022/05/12 08:39:18;;;;;;;5.47;1.33;;;;;;;16.90;55.25;101119.66;5981065;28;20467;-66
2022/05/12 08:42:25;;;;;;;3.38;1.40;;;;;;;16.73;56.48;101126.09;5972380;28;20059;-65
2022/05/12 08:45:21;;;;;;;4.68;1.30;;;;;;;16.23;56.10;101129.13;5977768;29;20536;-66
2022/05/12 08:48:17;;;;;;;3.50;1.40;;;;;;;16.49;55.74;101124.34;5986809;28;20031;-67
2022/05/12 08:51:15;;;;;;;4.47;1.10;;;;;;;16.74;55.49;101116.22;5979126;28;20039;-65
2022/05/12 08:54:18;;;;;;;2.45;1.15;;;;;;;17.02;52.19;101117.38;5987150;28;20039;-65
2022/05/12 08:57:38;;;;;;;3.30;1.35;;;;;;;17.24;52.44;101125.44;5981472;28;20081;-67
2022/05/12 09:01:04;;;;;;;7.63;1.40;;;;;;;17.72;53.48;101128.72;5978839;28;20043;-67
2022/05/12 09:04:28;;;;;;;4.28;1.23;;;;;;;18.12;51.65;101136.41;5969166;29;20443;-66
2022/05/12 09:07:29;;;;;;;5.07;1.10;;;;;;;17.94;50.11;101122.47;5980639;28;20039;-66
2022/05/12 09:10:44;;;;;;;3.92;1.17;;;;;;;17.74;49.65;101127.56;5979583;28;20050;-66
2022/05/12 09:13:52;;;;;;;3.78;0.93;;;;;;;17.82;51.29;101132.84;5983134;28;20035;-65
2022/05/12 09:16:51;;;;;;;2.58;1.00;;;;;;;16.98;51.66;101134.84;5980435;28;20423;-66
2022/05/12 09:19:47;;;;;;;5.47;1.40;;;;;;;17.14;53.34;101132.88;5979420;28;20046;-66
2022/05/12 09:22:42;;;;;;;3.17;0.75;;;;;;;17.85;51.69;101135.13;5980367;28;20031;-66
2022/05/12 09:25:45;;;;;;;4.88;0.80;;;;;;;18.52;50.70;101121.66;5984423;28;20035;-65
2022/05/12 09:28:40;;;;;;;4.72;1.00;;;;;;;18.05;49.68;101134.59;5964690;29;20031;-66
2022/05/12 09:31:36;;;;;;;5.70;1.10;;;;;;;17.54;51.47;101137.13;5971799;28;20035;-65
2022/05/12 09:34:32;;;;;;;2.17;0.93;;;;;;;17.26;53.14;101144.84;5979917;28;20074;-67
2022/05/12 09:37:28;;;;;;;2.25;0.82;;;;;;;17.56;53.01;101137.75;5987296;28;20042;-67
2022/05/12 09:40:27;;;;;;;4.18;1.00;;;;;;;17.70;49.66;101142.34;5983208;28;20039;-65
2022/05/12 09:43:32;;;;;;;3.05;0.80;;;;;;;17.30;51.33;101134.59;5979328;28;20471;-66
2022/05/12 09:46:31;;;;;;;4.60;0.90;;;;;;;17.39;50.85;101144.25;5986714;28;20035;-65
2022/05/12 09:49:32;;;;;;;1.75;0.88;;;;;;;16.96;51.89;101142.22;5983199;28;20127;-66
2022/05/12 09:52:35;;;;;;;4.55;1.02;;;;;;;17.13;52.05;101138.41;5976642;28;20043;-66
2022/05/12 09:55:30;;;;;;;4.60;0.70;;;;;;;17.51;49.03;101141.97;5989542;28;20035;-66
2022/05/12 09:58:36;;;;;;;2.20;0.80;;;;;;;17.82;50.11;101135.53;5975431;28;20031;-66
2022/05/12 10:01:31;;;;;;;;;;;;;;;18.47;48.13;101134.81;5974774;28;20035;-66
2022/05/12 10:08:01;;;;;;;1.60;0.70;;;;;;;18.48;46.28;101136.47;5979486;28;20039;-66
2022/05/12 10:11:02;;;;;;;2.67;0.90;;;;;;;18.52;45.81;101132.41;5976614;28;20031;-66
2022/05/12 10:14:00;;;;;;;4.40;0.90;;;;;;;18.66;45.70;101136.09;5981907;28;20047;-65
2022/05/12 10:16:56;;;;;;;3.55;0.80;;;;;;;18.42;46.80;101140.75;5967082;29;20047;-65
2022/05/12 10:19:53;;;;;;;3.75;1.00;;;;;;;18.50;45.61;101134.47;5978259;28;20039;-66
2022/05/12 10:22:48;;;;;;;3.40;0.82;;;;;;;18.78;48.09;101138.09;5970132;28;20030;-67
2022/05/12 10:25:58;;;;;;;3.43;0.90;;;;;;;18.57;48.25;101145.28;5982069;28;20562;-66
2022/05/12 10:28:59;;;;;;;1.52;0.80;;;;;;;18.60;47.09;101140.38;5973382;28;20383;-67
2022/05/12 10:32:27;;;;;;;2.78;0.80;;;;;;;18.72;44.54;101138.88;5965306;28;20048;-66
2022/05/12 10:35:38;;;;;;;2.28;0.90;;;;;;;19.26;44.75;101141.13;5978373;28;20032;-67
2022/05/12 10:38:42;;;;;;;3.05;0.80;;;;;;;19.34;40.61;101133.75;5983936;28;20047;-66
2022/05/12 10:42:05;;;;;;;2.47;0.70;;;;;;;19.46;43.38;101136.75;5964431;28;20098;-66
2022/05/12 10:45:12;;;;;;;1.42;0.95;;;;;;;19.63;44.47;101135.47;5995963;28;20107;-68
2022/05/12 10:48:19;;;;;;;4.72;0.90;;;;;;;19.75;42.75;101144.69;5971244;28;20042;-67
2022/05/12 10:51:39;;;;;;;4.28;1.00;;;;;;;19.79;42.00;101140.56;5980021;28;20055;-66
2022/05/12 10:55:07;;;;;;;3.15;0.90;;;;;;;20.03;42.55;101145.50;5977035;28;20051;-67
2022/05/12 10:58:22;;;;;;;3.53;1.27;;;;;;;20.34;42.51;101130.81;5972528;28;20035;-67
2022/05/12 11:01:37;;;;;;;5.68;1.35;;;;;;;20.64;40.06;101134.91;5977940;28;20698;-66
2022/05/12 11:04:38;;;;;;;2.53;1.00;;;;;;;20.69;40.67;101124.34;5982418;28;20039;-65
2022/05/12 11:07:47;;;;;;;1.70;0.88;;;;;;;20.17;41.13;101141.88;5977995;28;20750;-65
2022/05/12 11:11:02;;;;;;;2.15;0.80;;;;;;;20.24;42.71;101130.31;5980316;28;20043;-67
2022/05/12 11:14:09;;;;;;;3.33;0.93;;;;;;;20.17;40.40;101131.09;5994425;28;20493;-65
2022/05/12 11:17:08;;;;;;;2.30;0.80;;;;;;;19.88;41.62;101134.03;5980009;28;20110;-65
2022/05/12 11:20:17;;;;;;;2.55;0.68;;;;;;;20.46;42.71;101140.00;5982703;28;20031;-65
2022/05/12 11:23:34;;;;;;;1.88;0.88;;;;;;;20.66;39.70;101130.97;5985192;28;20035;-67
2022/05/12 11:26:51;;;;;;;1.58;0.80;;;;;;;19.94;38.71;101138.63;5983455;28;20075;-65
2022/05/12 11:30:08;;;;;;;3.42;0.93;;;;;;;19.52;40.33;101141.38;5981551;28;20577;-64
2022/05/12 11:33:19;;;;;;;2.63;0.68;;;;;;;19.48;39.58;101121.28;5983903;28;20244;-68
2022/05/12 11:36:15;;;;;;;2.22;0.75;;;;;;;19.79;39.24;101137.03;5988894;28;20039;-66
2022/05/12 11:39:40;;;;;;;2.08;0.75;;;;;;;20.07;40.04;101121.72;5992760;28;20458;-66
2022/05/12 11:46:26;;;;;;;2.65;1.17;;;;;;;20.62;39.13;101123.50;5973856;29;20043;-68
2022/05/12 11:49:41;;;;;;;1.75;0.95;;;;;;;21.21;37.54;101119.13;5982364;28;20039;-67
2022/05/12 11:52:59;;;;;;;1.10;0.68;;;;;;;20.64;36.83;101121.41;5986446;28;20034;-66
2022/05/12 11:56:07;;;;;;;3.28;0.90;;;;;;;20.74;38.22;101124.56;5988448;28;20252;-67
2022/05/12 11:59:13;;;;;;;1.60;0.90;;;;;;;21.10;36.47;101126.97;5981209;28;20114;-67
2022/05/12 12:02:27;;;;;;;2.83;1.02;;;;;;;20.73;35.77;101131.00;5987164;28;20494;-66
2022/05/12 12:05:30;;;;;;;3.97;0.70;;;;;;;20.72;36.31;101124.78;5982095;28;20035;-65
2022/05/12 12:08:31;;;;;;;2.38;0.88;;;;;;;20.60;36.46;101141.75;5993547;28;20035;-67
2022/05/12 12:11:27;;;;;;;2.78;0.77;;;;;;;20.93;38.08;101126.50;5987360;28;20047;-66
2022/05/12 12:14:48;;;;;;;2.03;0.70;;;;;;;21.42;38.04;101130.75;5981621;28;20046;-66
2022/05/12 12:17:44;;;;;;;1.38;0.70;;;;;;;21.28;36.11;101114.56;5981481;29;20043;-67
2022/05/12 12:20:39;;;;;;;2.28;0.80;;;;;;;21.57;36.48;101123.31;5983408;28;20039;-67
2022/05/12 12:23:35;;;;;;;3.03;0.85;;;;;;;21.26;38.05;101124.72;5981299;28;20035;-67
2022/05/12 12:26:37;;;;;;;3.58;1.00;;;;;;;21.44;36.91;101112.50;5979922;28;20090;-66
2022/05/12 12:29:42;;;;;;;3.65;1.02;;;;;;;21.63;35.15;101114.38;5990892;28;20043;-66
2022/05/12 12:32:37;;;;;;;2.50;0.80;;;;;;;21.30;33.97;101112.50;5983277;28;20518;-66
2022/05/12 12:35:50;;;;;;;1.77;0.57;;;;;;;21.26;34.31;101116.63;5981399;28;20039;-67
2022/05/12 12:38:47;;;;;;;3.05;1.00;;;;;;;21.04;34.70;101116.97;5981332;28;20403;-67
2022/05/12 12:41:44;;;;;;;2.97;0.70;;;;;;;20.29;37.84;101122.50;5980448;28;20494;-67
2022/05/12 12:44:46;;;;;;;2.78;0.70;;;;;;;19.54;38.25;101117.84;5989273;28;20118;-66
2022/05/12 12:47:47;;;;;;;2.30;0.70;;;;;;;19.79;38.61;101100.19;5983437;28;20039;-67
2022/05/12 12:50:50;;;;;;;1.67;0.90;;;;;;;20.18;38.62;101108.53;5973069;28;20114;-66
2022/05/12 12:57:04;;;;;;;2.60;0.80;;;;;;;20.78;37.07;101113.19;5978461;28;20027;-66
2022/05/12 13:00:03;;;;;;;1.73;0.55;;;;;;;21.04;36.60;101117.81;5986953;28;20035;-66
2022/05/12 13:03:04;;;;;;;2.45;0.90;;;;;;;21.03;36.43;101113.47;5979987;28;20031;-66
2022/05/12 13:06:06;;;;;;;;;;;;;;;20.92;36.43;101105.97;5981185;28;20527;-67
2022/05/12 13:09:05;;;;;;;2.80;0.70;;;;;;;21.14;36.77;101102.09;5975893;28;20509;-66
2022/05/12 13:12:14;;;;;;;3.85;0.90;;;;;;;21.34;33.54;101100.25;5974369;28;20028;-66
2022/05/12 13:15:18;;;;;;;2.42;1.00;;;;;;;21.00;35.69;101092.28;5988972;28;20395;-66
2022/05/12 13:18:22;;;;;;;2.42;0.70;;;;;;;20.93;35.40;101099.53;5980099;28;20038;-68
2022/05/12 13:21:29;;;;;;;4.07;0.90;;;;;;;20.87;35.07;101094.97;5985905;28;20083;-66
2022/05/12 13:24:32;;;;;;;5.10;1.25;;;;;;;21.22;36.23;101088.41;5987585;28;20565;-67
2022/05/12 13:27:35;;;;;;;2.90;0.98;;;;;;;21.24;36.68;101086.34;5982839;28;20084;-66
2022/05/12 13:30:39;;;;;;;2.13;0.82;;;;;;;21.12;35.47;101081.75;5984588;28;20085;-67
2022/05/12 13:33:34;;;;;;;3.40;1.15;;;;;;;21.10;36.49;101084.66;5980816;28;20035;-66
2022/05/12 13:36:36;;;;;;;3.23;0.80;;;;;;;21.52;35.97;101077.22;5986872;28;20042;-68
2022/05/12 13:39:39;;;;;;;4.82;1.00;;;;;;;21.26;36.16;101073.47;5974958;28;20023;-67
2022/05/12 13:42:40;;;;;;;6.65;1.30;;;;;;;20.87;37.18;101081.50;5975455;28;20502;-67
2022/05/12 13:45:36;;;;;;;2.78;0.80;;;;;;;20.43;37.45;101086.50;5979684;28;20102;-66
2022/05/12 13:48:31;;;;;;;2.17;1.17;;;;;;;20.52;37.58;101079.94;5979794;28;20371;-67
2022/05/12 13:51:51;;;;;;;3.58;0.90;;;;;;;20.72;37.68;101064.63;5975079;28;20403;-68
2022/05/12 13:54:55;;;;;;;1.52;1.00;;;;;;;20.85;37.91;101067.34;5974259;28;20094;-67
2022/05/12 13:58:15;;;;;;;4.68;1.40;;;;;;;21.17;36.63;101063.09;5974475;28;20065;-66
2022/05/12 14:01:11;;;;;;;4.32;0.93;;;;;;;21.17;37.06;101063.91;5976756;28;20043;-66
2022/05/12 14:04:27;;;;;;;6.32;1.30;;;;;;;22.10;36.06;101060.09;5968248;28;20028;-64
2022/05/12 14:07:30;;;;;;;5.60;1.20;;;;;;;22.20;36.35;101051.56;5963578;28;20518;-67
2022/05/12 14:10:46;;;;;;;3.40;1.13;;;;;;;21.71;35.58;101065.56;5972124;28;20109;-67
2022/05/12 14:20:15;;;;;;;4.32;1.20;;;;;;;21.83;35.09;101044.97;5965706;28;20027;-68
2022/05/12 14:23:11;;;;;;;4.25;1.10;;;;;;;21.73;35.50;101048.13;5962833;29;20036;-66
2022/05/12 14:26:06;;;;;;;3.87;1.10;;;;;;;21.25;34.29;101061.00;5974242;28;20031;-66